Terminal Aerodrome Forecast
Issued by NWS

Home | Current Version | Previous Version | Text Only | Print | Product List | Glossary On
Versions: 1 2 3 4 5 6 7 8 9 10 11 12 13 14 15 16 17 18
000
FTUS44 KTSA 200500
TAFFYV
TAF
KFYV 200520Z 2006/2106 VRB03KT P6SM VCSH BKN040 BKN100
     FM201200 VRB03KT P6SM BKN040
     FM201500 20004KT P6SM OVC035=

USA.gov is the U.S. government's official web portal to all federal, state and local government web resources and services.